LFML 190430Z AUTO 07007KT CAVOK 19/11 Q1014 TEMPO 15017G29KT

ElémentsDécodage
LFML Station météo située sur l'aérodrome de MARSEILLE PROVENCE
190430Z émis le 19 du mois à 04h30 UTC
AUTO Bulletin édité par un automate
07007KT vent du 070°, 07 noeuds
CAVOK Ceiling And Visibility OK
- Visibilité de 10 Km ou plus
- Pas de nuage au-dessous de 1500m ou au-dessous de l'altitude minimale du secteur la plus élevée (si>1500m) et absence de CB
- pas de temps présent significatif
19/11 température 19°C, point de rosée 11°C
 soit une humidité relative de 60%
Q1014 la pression au niveau de la mer (QNH) est de 1014 hPa
TEMPO fluctuation temporaire prévue
15017G29KT vent du 150°, moyenne: 17 noeuds, avec rafales à 29 noeuds